createdAt,value
2018-08-25T00:01:44.882Z,17.60
2018-08-25T00:04:15.028Z,17.60
2018-08-25T00:06:45.237Z,17.60
2018-08-25T00:09:15.468Z,17.60
2018-08-25T00:11:45.678Z,17.50
2018-08-25T00:14:15.796Z,17.50
2018-08-25T00:16:45.992Z,17.50
2018-08-25T00:19:16.220Z,17.50
2018-08-25T00:21:46.312Z,17.50
2018-08-25T00:24:16.339Z,17.40
2018-08-25T00:26:46.404Z,17.40
2018-08-25T00:29:16.558Z,17.30
2018-08-25T00:31:46.714Z,17.30
2018-08-25T00:34:16.835Z,17.30
2018-08-25T00:36:46.953Z,17.30
2018-08-25T00:39:16.992Z,17.20
2018-08-25T00:41:47.359Z,17.20
2018-08-25T00:44:17.486Z,17.20
2018-08-25T00:46:47.593Z,17.20
2018-08-25T00:49:17.775Z,17.20
2018-08-25T00:51:47.850Z,17.20
2018-08-25T00:54:17.990Z,17.10
2018-08-25T00:56:48.123Z,17.00
2018-08-25T00:59:18.351Z,17.00
2018-08-25T01:01:49.013Z,17.00
2018-08-25T01:04:19.033Z,17.00
2018-08-25T01:06:49.316Z,16.90
2018-08-25T01:09:19.424Z,16.90
2018-08-25T01:11:49.522Z,16.80
2018-08-25T01:14:19.673Z,16.90
2018-08-25T01:16:49.866Z,16.80
2018-08-25T01:19:19.952Z,16.80
2018-08-25T01:21:50.011Z,16.80
2018-08-25T01:24:20.371Z,16.70
2018-08-25T01:26:50.485Z,16.70
2018-08-25T01:29:20.659Z,16.70
2018-08-25T01:31:50.697Z,16.70
2018-08-25T01:34:20.890Z,16.70
2018-08-25T01:36:51.080Z,16.60
2018-08-25T01:39:21.232Z,16.60
2018-08-25T01:41:51.403Z,16.50
2018-08-25T01:44:21.663Z,16.50
2018-08-25T01:46:51.736Z,16.50
2018-08-25T01:49:21.924Z,16.50
2018-08-25T01:51:52.028Z,16.50
2018-08-25T01:54:22.059Z,16.50
2018-08-25T01:56:52.201Z,16.50
2018-08-25T01:59:22.426Z,16.50
2018-08-25T02:01:52.425Z,16.50
2018-08-25T02:04:22.757Z,16.50
2018-08-25T02:06:52.995Z,16.50
2018-08-25T02:09:23.125Z,16.50
2018-08-25T02:11:53.272Z,16.40
2018-08-25T02:14:23.375Z,16.40
2018-08-25T02:16:53.566Z,16.30
2018-08-25T02:19:23.785Z,16.30
2018-08-25T02:21:53.876Z,16.30
2018-08-25T02:24:24.049Z,16.20
2018-08-25T02:26:54.205Z,16.20
2018-08-25T02:29:24.273Z,16.20
2018-08-25T02:31:54.440Z,16.10
2018-08-25T02:34:24.575Z,16.10
2018-08-25T02:36:54.838Z,16.10
2018-08-25T02:39:25.053Z,16.00
2018-08-25T02:41:55.208Z,16.00
2018-08-25T02:44:25.395Z,15.90
2018-08-25T02:46:55.585Z,15.90
2018-08-25T02:49:25.681Z,15.90
2018-08-25T02:51:55.761Z,15.90
2018-08-25T02:54:25.934Z,15.90
2018-08-25T02:56:55.971Z,15.80
2018-08-25T02:59:26.097Z,15.80
2018-08-25T03:01:56.825Z,15.80
2018-08-25T03:04:26.956Z,15.80
2018-08-25T03:06:56.959Z,15.80
2018-08-25T03:09:27.183Z,15.70
2018-08-25T03:11:57.302Z,15.70
2018-08-25T03:14:27.521Z,15.70
2018-08-25T03:16:57.673Z,15.70
2018-08-25T03:19:27.719Z,15.70
2018-08-25T03:21:57.783Z,15.60
2018-08-25T03:24:28.033Z,15.60
2018-08-25T03:26:59.047Z,15.60
2018-08-25T03:29:29.185Z,15.60
2018-08-25T03:31:59.295Z,15.60
2018-08-25T03:34:29.384Z,15.50
2018-08-25T03:36:59.607Z,15.50
2018-08-25T03:39:29.693Z,15.50
2018-08-25T03:41:59.802Z,15.50
2018-08-25T03:44:29.982Z,15.50
2018-08-25T03:47:00.208Z,15.50
2018-08-25T03:49:30.529Z,15.50
2018-08-25T03:52:00.797Z,15.50
2018-08-25T03:54:30.916Z,15.50
2018-08-25T03:57:00.970Z,15.50
2018-08-25T03:59:31.169Z,15.40
2018-08-25T04:02:02.223Z,15.40
2018-08-25T04:04:32.325Z,15.40
2018-08-25T04:07:02.488Z,15.40
2018-08-25T04:09:32.651Z,15.40
2018-08-25T04:12:02.656Z,15.40
2018-08-25T04:14:32.846Z,15.40
2018-08-25T04:17:02.872Z,15.40
2018-08-25T04:19:33.052Z,15.40
2018-08-25T04:22:03.318Z,15.40
2018-08-25T04:24:33.988Z,15.40
2018-08-25T04:27:04.140Z,15.40
2018-08-25T04:29:34.262Z,15.40
2018-08-25T04:32:04.386Z,15.40
2018-08-25T04:34:34.503Z,15.40
2018-08-25T04:37:04.579Z,15.30
2018-08-25T04:39:34.696Z,15.30
2018-08-25T04:42:04.998Z,15.30
2018-08-25T04:44:35.115Z,15.30
2018-08-25T04:47:05.383Z,15.30
2018-08-25T04:49:35.470Z,15.30
2018-08-25T04:52:05.624Z,15.30
2018-08-25T04:54:35.778Z,15.30
2018-08-25T04:57:06.262Z,15.30
2018-08-25T04:59:36.428Z,15.30
2018-08-25T05:02:06.930Z,15.30
2018-08-25T05:04:37.605Z,15.30
2018-08-25T05:07:09.220Z,15.30
2018-08-25T05:09:39.836Z,15.30
2018-08-25T05:12:09.936Z,15.30
2018-08-25T05:14:40.016Z,15.30
2018-08-25T05:17:10.132Z,15.30
2018-08-25T05:19:41.194Z,15.40
2018-08-25T05:22:11.258Z,15.40
2018-08-25T05:24:41.796Z,15.40
2018-08-25T05:27:11.954Z,15.40
2018-08-25T05:29:42.126Z,15.40
2018-08-25T05:32:12.349Z,15.50
2018-08-25T05:34:42.504Z,15.50
2018-08-25T05:37:12.671Z,15.60
2018-08-25T05:39:42.790Z,15.60
2018-08-25T05:42:12.948Z,15.60
2018-08-25T05:44:43.592Z,15.60
2018-08-25T05:47:13.948Z,15.70
2018-08-25T05:49:44.078Z,15.70
2018-08-25T05:52:14.260Z,15.80
2018-08-25T05:54:44.404Z,15.80
2018-08-25T05:57:14.405Z,15.90
2018-08-25T05:59:44.605Z,15.90
2018-08-25T06:02:14.700Z,15.90
2018-08-25T06:04:44.900Z,15.90
2018-08-25T06:07:15.116Z,15.90
2018-08-25T06:09:45.286Z,16.00
2018-08-25T06:12:15.357Z,16.00
2018-08-25T06:14:45.753Z,16.00
2018-08-25T06:17:15.873Z,16.00
2018-08-25T06:19:46.058Z,16.00
2018-08-25T06:22:16.214Z,16.10
2018-08-25T06:24:47.556Z,16.10
2018-08-25T06:27:17.729Z,16.20
2018-08-25T06:29:48.151Z,16.20
2018-08-25T06:32:18.240Z,16.20
2018-08-25T06:34:48.911Z,16.20
2018-08-25T06:37:19.030Z,16.30
2018-08-25T06:39:49.247Z,16.40
2018-08-25T06:42:19.464Z,16.50
2018-08-25T06:44:50.209Z,16.60
2018-08-25T06:47:20.363Z,16.60
2018-08-25T06:49:50.504Z,16.70
2018-08-25T06:52:20.701Z,16.80
2018-08-25T06:54:51.421Z,16.80
2018-08-25T06:57:21.579Z,17.00
2018-08-25T06:59:51.935Z,17.00
2018-08-25T07:02:22.623Z,17.00
2018-08-25T07:04:52.696Z,17.10
2018-08-25T07:07:23.689Z,17.10
2018-08-25T07:09:53.891Z,17.20
2018-08-25T07:12:24.047Z,17.30
2018-08-25T07:14:54.588Z,17.30
2018-08-25T07:17:24.867Z,17.40
2018-08-25T07:19:55.047Z,17.40
2018-08-25T07:22:25.307Z,17.40
2018-08-25T07:24:55.481Z,17.40
2018-08-25T07:27:25.537Z,17.40
2018-08-25T07:29:55.925Z,17.40
2018-08-25T07:32:27.020Z,17.50
2018-08-25T07:34:57.271Z,17.50
2018-08-25T07:37:27.463Z,17.50
2018-08-25T07:39:57.652Z,17.50
2018-08-25T07:42:27.679Z,17.50
2018-08-25T07:44:57.816Z,17.50
2018-08-25T07:47:28.085Z,17.60
2018-08-25T07:49:58.797Z,17.60
2018-08-25T07:52:28.919Z,17.60
2018-08-25T07:54:59.304Z,17.60
2018-08-25T07:57:29.361Z,17.60
2018-08-25T07:59:59.512Z,17.60
2018-08-25T08:02:29.720Z,17.50
2018-08-25T08:04:59.897Z,17.40
2018-08-25T08:07:30.074Z,17.40
2018-08-25T08:10:00.107Z,17.50
2018-08-25T08:12:30.282Z,17.60
2018-08-25T08:15:00.393Z,17.80
2018-08-25T08:17:30.528Z,17.90
2018-08-25T08:20:00.600Z,18.20
2018-08-25T08:22:30.745Z,18.30
2018-08-25T08:25:01.416Z,18.50
2018-08-25T08:27:31.549Z,18.60
2018-08-25T08:30:01.796Z,18.70
2018-08-25T08:32:31.916Z,18.80
2018-08-25T08:35:02.310Z,18.90
2018-08-25T08:37:33.109Z,19.00
2018-08-25T08:40:03.368Z,19.00
2018-08-25T08:42:33.554Z,19.00
2018-08-25T08:45:03.750Z,19.10
2018-08-25T08:47:33.911Z,19.10
2018-08-25T08:50:09.045Z,19.10
2018-08-25T08:52:39.820Z,19.10
2018-08-25T08:55:09.993Z,19.10
2018-08-25T08:57:40.090Z,19.10
2018-08-25T09:00:10.316Z,19.10
2018-08-25T09:02:40.358Z,19.10
2018-08-25T09:05:10.544Z,19.20
2018-08-25T09:07:40.736Z,19.10
2018-08-25T09:10:10.958Z,19.00
2018-08-25T09:12:41.079Z,19.10
2018-08-25T09:17:45.792Z,19.00
2018-08-25T09:20:15.820Z,18.90
2018-08-25T09:22:45.949Z,18.80
2018-08-25T09:25:16.806Z,18.80
2018-08-25T09:27:46.960Z,18.70
2018-08-25T09:30:17.196Z,18.60
2018-08-25T09:32:48.654Z,18.60
2018-08-25T09:35:18.785Z,18.50
2018-08-25T09:37:49.018Z,18.40
2018-08-25T09:40:19.146Z,18.40
2018-08-25T09:42:52.392Z,18.30
2018-08-25T09:45:22.576Z,18.30
2018-08-25T09:47:52.720Z,18.30
2018-08-25T09:50:22.773Z,18.30
2018-08-25T09:52:52.956Z,18.30
2018-08-25T09:55:23.090Z,18.20
2018-08-25T09:57:53.176Z,18.20
2018-08-25T10:00:23.600Z,18.10
2018-08-25T10:02:54.484Z,18.10
2018-08-25T10:05:24.564Z,18.10
2018-08-25T10:07:54.520Z,18.10
2018-08-25T10:10:24.565Z,18.20
2018-08-25T10:12:54.586Z,18.20
2018-08-25T10:15:24.644Z,18.20
2018-08-25T10:17:54.656Z,18.20
2018-08-25T10:20:25.307Z,18.10
2018-08-25T10:22:55.912Z,18.00
2018-08-25T10:25:26.108Z,17.90
2018-08-25T10:27:58.184Z,17.80
2018-08-25T10:30:29.896Z,17.80
2018-08-25T10:33:01.709Z,17.80
2018-08-25T10:35:32.028Z,17.80
2018-08-25T10:38:02.216Z,17.80
2018-08-25T10:40:32.374Z,17.70
2018-08-25T10:43:02.687Z,17.70
2018-08-25T10:45:32.903Z,17.80
2018-08-25T10:48:03.101Z,17.90
2018-08-25T10:50:33.110Z,18.00
2018-08-25T10:53:03.225Z,18.00
2018-08-25T10:55:33.429Z,18.10
2018-08-25T10:58:05.394Z,18.20
2018-08-25T11:00:35.579Z,18.20
2018-08-25T11:03:05.695Z,18.20
2018-08-25T11:05:35.821Z,18.20
2018-08-25T11:08:06.223Z,18.10
2018-08-25T11:10:36.345Z,18.10
2018-08-25T11:13:06.693Z,18.10
2018-08-25T11:15:36.770Z,18.00
2018-08-25T11:18:06.924Z,18.00
2018-08-25T11:20:37.159Z,18.00
2018-08-25T11:23:07.289Z,17.90
2018-08-25T11:25:37.499Z,17.90
2018-08-25T11:28:08.701Z,17.80
2018-08-25T11:30:38.991Z,17.70
2018-08-25T11:33:09.195Z,17.60
2018-08-25T11:35:39.447Z,17.40
2018-08-25T11:38:09.648Z,17.20
2018-08-25T11:40:40.266Z,17.20
2018-08-25T11:43:10.351Z,17.20
2018-08-25T11:45:40.493Z,17.20
2018-08-25T11:48:10.615Z,17.30
2018-08-25T11:50:40.780Z,17.30
2018-08-25T11:53:10.905Z,17.20
2018-08-25T11:55:41.089Z,17.20
2018-08-25T11:58:11.161Z,17.20
2018-08-25T12:00:41.430Z,17.10
2018-08-25T12:03:11.551Z,17.00
2018-08-25T12:05:41.767Z,17.00
2018-08-25T12:08:12.443Z,17.00
2018-08-25T12:10:42.642Z,17.00
2018-08-25T12:13:12.892Z,17.00
2018-08-25T12:15:42.983Z,17.00
2018-08-25T12:18:13.048Z,17.00
2018-08-25T12:20:43.777Z,17.00
2018-08-25T12:23:13.942Z,17.00
2018-08-25T12:25:44.121Z,17.00
2018-08-25T12:28:14.230Z,16.90
2018-08-25T12:30:44.542Z,16.90
2018-08-25T12:33:14.578Z,16.80
2018-08-25T12:35:45.225Z,16.90
2018-08-25T12:38:15.448Z,16.80
2018-08-25T12:40:45.500Z,16.80
2018-08-25T12:43:15.747Z,16.80
2018-08-25T12:45:46.263Z,16.90
2018-08-25T12:48:16.327Z,16.90
2018-08-25T12:50:46.442Z,16.90
2018-08-25T12:53:16.668Z,16.90
2018-08-25T12:55:46.768Z,16.80
2018-08-25T12:58:16.791Z,16.70
2018-08-25T13:00:46.900Z,16.60
2018-08-25T13:03:17.021Z,16.60
2018-08-25T13:05:47.116Z,16.60
2018-08-25T13:08:17.174Z,16.60
2018-08-25T13:10:47.328Z,16.70
2018-08-25T13:13:17.367Z,16.70
2018-08-25T13:15:47.598Z,16.70
2018-08-25T13:18:17.728Z,16.80
2018-08-25T13:20:47.940Z,17.00
2018-08-25T13:23:18.817Z,17.00
2018-08-25T13:25:48.877Z,17.10
2018-08-25T13:28:18.986Z,17.00
2018-08-25T13:30:49.308Z,17.10
2018-08-25T13:33:19.303Z,17.00
2018-08-25T13:35:49.922Z,16.90
2018-08-25T13:38:20.557Z,16.80
2018-08-25T13:40:50.650Z,16.80
2018-08-25T13:43:21.203Z,16.70
2018-08-25T13:45:51.444Z,16.70
2018-08-25T13:48:22.163Z,16.70
2018-08-25T13:50:52.263Z,16.80
2018-08-25T13:53:22.334Z,16.80
2018-08-25T13:55:52.551Z,16.80
2018-08-25T13:58:22.756Z,16.70
2018-08-25T14:00:52.769Z,16.70
2018-08-25T14:03:22.891Z,16.70
2018-08-25T14:05:53.028Z,16.70
2018-08-25T14:08:23.271Z,16.70
2018-08-25T14:10:53.374Z,16.70
2018-08-25T14:13:23.489Z,16.70
2018-08-25T14:15:53.776Z,16.70
2018-08-25T14:18:23.739Z,16.60
2018-08-25T14:20:53.838Z,16.60
2018-08-25T14:23:23.918Z,16.60
2018-08-25T14:25:54.056Z,16.60
2018-08-25T14:28:24.236Z,16.50
2018-08-25T14:30:54.326Z,16.50
2018-08-25T14:33:24.715Z,16.50
2018-08-25T14:35:54.818Z,16.50
2018-08-25T14:38:25.191Z,16.50
2018-08-25T14:40:55.377Z,16.50
2018-08-25T14:43:25.450Z,16.50
2018-08-25T14:45:55.552Z,16.50
2018-08-25T14:48:25.659Z,16.60
2018-08-25T14:50:56.010Z,16.60
2018-08-25T14:53:26.082Z,16.60
2018-08-25T14:55:56.273Z,16.50
2018-08-25T14:58:26.528Z,16.60
2018-08-25T15:00:56.785Z,16.70
2018-08-25T15:03:27.018Z,16.70
2018-08-25T15:05:57.128Z,16.80
2018-08-25T15:08:27.350Z,16.90
2018-08-25T15:10:57.417Z,17.00
2018-08-25T15:13:27.531Z,17.10
2018-08-25T15:15:57.693Z,17.10
2018-08-25T15:18:27.795Z,17.20
2018-08-25T15:20:57.882Z,17.30
2018-08-25T15:23:27.895Z,17.40
2018-08-25T15:25:58.105Z,17.60
2018-08-25T15:28:28.236Z,17.80
2018-08-25T15:30:58.470Z,17.90
2018-08-25T15:33:29.586Z,18.10
2018-08-25T15:35:59.741Z,18.30
2018-08-25T15:38:29.969Z,18.70
2018-08-25T15:41:00.151Z,19.10
2018-08-25T15:43:30.200Z,19.30
2018-08-25T15:46:00.391Z,19.10
2018-08-25T15:48:30.503Z,18.90
2018-08-25T15:51:00.821Z,18.80
2018-08-25T15:53:31.024Z,18.60
2018-08-25T15:56:01.194Z,18.40
2018-08-25T15:58:31.387Z,18.10
2018-08-25T16:01:01.550Z,17.90
2018-08-25T16:03:31.937Z,17.80
2018-08-25T16:06:02.176Z,17.60
2018-08-25T16:08:32.195Z,17.50
2018-08-25T16:11:02.409Z,17.40
2018-08-25T16:13:33.151Z,17.40
2018-08-25T16:16:03.420Z,17.40
2018-08-25T16:18:33.869Z,17.40
2018-08-25T16:21:03.919Z,17.40
2018-08-25T16:23:34.142Z,17.40
2018-08-25T16:26:04.393Z,17.40
2018-08-25T16:28:34.559Z,17.40
2018-08-25T16:31:05.318Z,17.30
2018-08-25T16:33:35.561Z,17.30
2018-08-25T16:36:05.745Z,17.30
2018-08-25T16:38:35.838Z,17.30
2018-08-25T16:41:06.002Z,17.30
2018-08-25T16:43:36.126Z,17.40
2018-08-25T16:46:07.593Z,17.60
2018-08-25T16:48:37.791Z,17.90
2018-08-25T16:51:08.319Z,18.10
2018-08-25T16:53:38.657Z,18.10
2018-08-25T16:56:08.979Z,18.00
2018-08-25T16:58:39.117Z,17.90
2018-08-25T17:01:09.295Z,17.90
2018-08-25T17:03:39.431Z,17.80
2018-08-25T17:06:09.576Z,17.70
2018-08-25T17:08:39.753Z,17.60
2018-08-25T17:11:09.982Z,17.50
2018-08-25T17:13:40.066Z,17.40
2018-08-25T17:16:10.237Z,17.40
2018-08-25T17:18:40.394Z,17.30
2018-08-25T17:21:10.700Z,17.20
2018-08-25T17:23:40.808Z,17.10
2018-08-25T17:26:10.990Z,17.00
2018-08-25T17:28:41.016Z,16.90
2018-08-25T17:31:11.088Z,16.90
2018-08-25T17:33:41.848Z,16.90
2018-08-25T17:36:12.074Z,16.80
2018-08-25T17:38:42.345Z,16.80
2018-08-25T17:41:12.496Z,16.80
2018-08-25T17:43:42.589Z,16.80
2018-08-25T17:46:12.735Z,16.80
2018-08-25T17:48:42.792Z,16.70
2018-08-25T17:51:13.139Z,16.70
2018-08-25T17:53:43.470Z,16.60
2018-08-25T17:56:14.478Z,16.50
2018-08-25T17:58:44.671Z,16.50
2018-08-25T18:01:14.932Z,16.50
2018-08-25T18:03:45.108Z,16.50
2018-08-25T18:06:16.703Z,16.50
2018-08-25T18:08:46.816Z,16.50
2018-08-25T18:11:17.071Z,16.50
2018-08-25T18:13:47.046Z,16.50
2018-08-25T18:16:17.234Z,16.50
2018-08-25T18:18:47.290Z,16.50
2018-08-25T18:21:17.454Z,16.50
2018-08-25T18:23:47.594Z,16.50
2018-08-25T18:26:17.752Z,16.30
2018-08-25T18:28:48.152Z,15.60
2018-08-25T18:31:18.267Z,14.90
2018-08-25T18:33:48.472Z,14.20
2018-08-25T18:36:18.620Z,13.70
2018-08-25T18:38:48.869Z,13.40
2018-08-25T18:41:19.005Z,13.20
2018-08-25T18:43:49.355Z,13.10
2018-08-25T18:46:19.500Z,13.00
2018-08-25T18:48:49.625Z,13.00
2018-08-25T18:51:20.130Z,13.00
2018-08-25T18:53:50.841Z,13.00
2018-08-25T18:56:20.988Z,13.10
2018-08-25T18:58:53.969Z,13.10
2018-08-25T19:01:24.189Z,13.00
2018-08-25T19:03:55.019Z,13.00
2018-08-25T19:06:25.112Z,13.00
2018-08-25T19:08:55.291Z,13.00
2018-08-25T19:11:25.343Z,13.00
2018-08-25T19:13:55.400Z,13.00
2018-08-25T19:16:26.279Z,13.00
2018-08-25T19:18:57.100Z,12.90
2018-08-25T19:21:27.305Z,12.90
2018-08-25T19:23:57.478Z,12.90
2018-08-25T19:26:28.001Z,12.90
2018-08-25T19:28:58.059Z,12.90
2018-08-25T19:31:28.275Z,12.90
2018-08-25T19:33:58.397Z,12.90
2018-08-25T19:36:28.622Z,12.90
2018-08-25T19:38:58.807Z,12.80
2018-08-25T19:41:28.879Z,12.80
2018-08-25T19:43:59.102Z,12.90
2018-08-25T19:46:29.256Z,12.90
2018-08-25T19:49:01.640Z,12.90
2018-08-25T19:51:31.761Z,12.80
2018-08-25T19:54:02.205Z,12.90
2018-08-25T19:56:32.377Z,12.90
2018-08-25T19:59:02.543Z,12.90
2018-08-25T20:01:32.699Z,12.80
2018-08-25T20:04:03.348Z,12.80
2018-08-25T20:06:34.335Z,12.80
2018-08-25T20:09:06.321Z,12.80
2018-08-25T20:11:36.801Z,12.90
2018-08-25T20:14:07.198Z,12.90
2018-08-25T20:16:38.233Z,13.00
2018-08-25T20:19:08.913Z,13.00
2018-08-25T20:21:39.163Z,13.10
2018-08-25T20:24:09.314Z,13.00
2018-08-25T20:26:40.871Z,13.00
2018-08-25T20:29:13.379Z,13.00
2018-08-25T20:31:43.725Z,13.00
2018-08-25T20:34:14.024Z,13.00
2018-08-25T20:36:44.192Z,13.00
2018-08-25T20:39:14.384Z,13.00
2018-08-25T20:41:44.595Z,13.00
2018-08-25T20:44:14.635Z,13.00
2018-08-25T20:46:44.737Z,12.90
2018-08-25T20:49:15.004Z,12.80
2018-08-25T20:51:47.284Z,12.80
2018-08-25T20:54:17.295Z,12.80
2018-08-25T20:56:47.473Z,12.80
2018-08-25T20:59:17.585Z,12.80
2018-08-25T21:01:48.527Z,12.70
2018-08-25T21:04:18.755Z,12.70
2018-08-25T21:06:49.459Z,12.70
2018-08-25T21:09:19.603Z,12.70
2018-08-25T21:11:49.827Z,12.70
2018-08-25T21:14:19.895Z,12.70
2018-08-25T21:16:50.867Z,12.70
2018-08-25T21:19:22.167Z,12.60
2018-08-25T21:21:52.404Z,12.60
2018-08-25T21:24:22.495Z,12.60
2018-08-25T21:26:52.686Z,12.60
2018-08-25T21:29:23.644Z,12.50
2018-08-25T21:31:53.847Z,12.50
2018-08-25T21:34:24.068Z,12.50
2018-08-25T21:36:54.676Z,12.50
2018-08-25T21:39:25.239Z,12.50
2018-08-25T21:41:55.929Z,12.50
2018-08-25T21:44:26.120Z,12.50
2018-08-25T21:46:56.594Z,12.50
2018-08-25T21:49:26.817Z,12.50
2018-08-25T21:51:56.966Z,12.50
2018-08-25T21:54:27.158Z,12.50
2018-08-25T21:56:57.306Z,12.50
2018-08-25T21:59:28.926Z,12.50
2018-08-25T22:02:01.721Z,12.50
2018-08-25T22:04:32.590Z,12.50
2018-08-25T22:07:02.762Z,12.50
2018-08-25T22:09:32.983Z,12.50
2018-08-25T22:12:03.041Z,12.50
2018-08-25T22:14:33.258Z,12.50
2018-08-25T22:17:03.600Z,12.50
2018-08-25T22:19:33.760Z,12.40
2018-08-25T22:22:03.784Z,12.40
2018-08-25T22:24:33.843Z,12.40
2018-08-25T22:27:04.507Z,12.40
2018-08-25T22:29:34.554Z,12.30
2018-08-25T22:32:04.744Z,12.30
2018-08-25T22:34:34.920Z,12.30
2018-08-25T22:37:05.281Z,12.20
2018-08-25T22:39:35.434Z,12.20
2018-08-25T22:42:05.748Z,12.20
2018-08-25T22:44:35.842Z,12.20
2018-08-25T22:47:06.070Z,12.20
2018-08-25T22:49:36.184Z,12.30
2018-08-25T22:52:06.414Z,12.30
2018-08-25T22:54:36.587Z,12.30
2018-08-25T22:57:06.974Z,12.20
2018-08-25T22:59:37.149Z,12.20
2018-08-25T23:02:07.302Z,12.20
2018-08-25T23:04:37.401Z,12.20
2018-08-25T23:07:07.556Z,12.20
2018-08-25T23:09:37.632Z,12.20
2018-08-25T23:12:07.823Z,12.30
2018-08-25T23:14:37.888Z,12.30
2018-08-25T23:17:08.103Z,12.30
2018-08-25T23:19:38.234Z,12.30
2018-08-25T23:22:08.442Z,12.40
2018-08-25T23:24:38.997Z,12.40
2018-08-25T23:27:09.682Z,12.40
2018-08-25T23:29:40.019Z,12.40
2018-08-25T23:32:10.450Z,12.40
2018-08-25T23:34:40.600Z,12.40
2018-08-25T23:37:10.816Z,12.50
2018-08-25T23:39:41.211Z,12.50
2018-08-25T23:42:11.412Z,12.50
2018-08-25T23:44:42.204Z,12.60
2018-08-25T23:47:12.540Z,12.60
2018-08-25T23:49:43.604Z,12.60
2018-08-25T23:52:13.802Z,12.70
2018-08-25T23:54:43.861Z,12.60
2018-08-25T23:57:13.997Z,12.60
2018-08-25T23:59:44.095Z,12.50
